createdAt,value
2022-12-05T00:01:57.271Z,101561.16
2022-12-05T00:04:26.885Z,101567.63
2022-12-05T00:06:58.599Z,101569.50
2022-12-05T00:09:27.787Z,101577.22
2022-12-05T00:11:55.023Z,101570.59
2022-12-05T00:14:22.023Z,101571.34
2022-12-05T00:16:49.017Z,101581.50
2022-12-05T00:19:18.937Z,101571.59
2022-12-05T00:21:48.810Z,101574.50
2022-12-05T00:24:17.167Z,101569.88
2022-12-05T00:26:44.584Z,101568.25
2022-12-05T00:29:12.327Z,101553.88
2022-12-05T00:31:39.476Z,101558.59
2022-12-05T00:34:06.812Z,101559.28
2022-12-05T00:36:36.911Z,101557.59
2022-12-05T00:39:11.226Z,101553.94
2022-12-05T00:41:40.594Z,101549.69
2022-12-05T00:44:08.381Z,101548.22
2022-12-05T00:46:38.296Z,101554.59
2022-12-05T00:49:10.662Z,101553.97
2022-12-05T00:51:44.221Z,101554.47
2022-12-05T00:54:14.820Z,101551.03
2022-12-05T00:56:44.397Z,101555.91
2022-12-05T00:59:21.109Z,101555.69
2022-12-05T01:01:52.474Z,101562.28
2022-12-05T01:04:28.020Z,101548.53
2022-12-05T01:06:59.224Z,101561.50
2022-12-05T01:09:29.235Z,101550.00
2022-12-05T01:11:56.584Z,101559.91
2022-12-05T01:14:25.765Z,101565.69
2022-12-05T01:16:56.414Z,101562.59
2022-12-05T01:19:33.120Z,101547.53
2022-12-05T01:22:00.957Z,101554.75
2022-12-05T01:24:29.978Z,101553.31
2022-12-05T01:26:57.343Z,101550.00
2022-12-05T01:29:26.225Z,101550.13
2022-12-05T01:31:54.284Z,101545.97
2022-12-05T01:34:22.405Z,101541.75
2022-12-05T01:36:51.600Z,101545.91
2022-12-05T01:39:18.602Z,101547.91
2022-12-05T01:41:49.374Z,101540.59
2022-12-05T01:44:16.219Z,101545.31
2022-12-05T01:46:53.750Z,101545.31
2022-12-05T01:49:34.192Z,101542.84
2022-12-05T01:52:07.856Z,101540.69
2022-12-05T01:54:38.314Z,101533.97
2022-12-05T01:57:11.726Z,101536.19
2022-12-05T01:59:57.316Z,101543.56
2022-12-05T02:02:24.949Z,101541.94
2022-12-05T02:05:10.645Z,101532.88
2022-12-05T02:07:41.116Z,101532.03
2022-12-05T02:10:09.085Z,101533.56
2022-12-05T02:12:38.941Z,101519.75
2022-12-05T02:15:21.870Z,101520.16
2022-12-05T02:18:54.651Z,101518.81
2022-12-05T02:21:33.726Z,101523.09
2022-12-05T02:24:57.293Z,101517.25
2022-12-05T02:28:08.350Z,101514.50
2022-12-05T02:31:16.742Z,101512.38
2022-12-05T02:33:50.988Z,101511.00
2022-12-05T02:36:40.923Z,101506.09
2022-12-05T02:39:47.740Z,101508.81
2022-12-05T02:42:41.283Z,101511.84
2022-12-05T02:45:13.282Z,101505.81
2022-12-05T02:47:48.652Z,101515.38
2022-12-05T02:50:23.056Z,101511.34
2022-12-05T02:52:52.534Z,101509.03
2022-12-05T02:55:26.562Z,101515.00
2022-12-05T02:57:59.121Z,101503.28
2022-12-05T03:00:26.065Z,101516.25
2022-12-05T03:02:59.122Z,101508.94
2022-12-05T03:05:39.040Z,101507.72
2022-12-05T03:08:15.590Z,101505.00
2022-12-05T03:10:45.158Z,101504.75
2022-12-05T03:13:26.007Z,101502.28
2022-12-05T03:16:17.300Z,101503.72
2022-12-05T03:19:16.395Z,101511.03
2022-12-05T03:22:02.383Z,101502.47
2022-12-05T03:24:30.780Z,101504.72
2022-12-05T03:27:30.828Z,101508.13
2022-12-05T03:30:04.902Z,101497.75
2022-12-05T03:32:34.393Z,101499.47
2022-12-05T03:35:17.322Z,101498.66
2022-12-05T03:38:37.924Z,101492.03
2022-12-05T03:41:40.909Z,101488.44
2022-12-05T03:44:18.558Z,101495.53
2022-12-05T03:46:54.698Z,101493.25
2022-12-05T03:49:35.067Z,101492.28
2022-12-05T03:53:03.689Z,101492.78
2022-12-05T03:55:31.018Z,101497.41
2022-12-05T03:58:18.317Z,101501.47
2022-12-05T04:00:51.808Z,101498.75
2022-12-05T04:03:27.480Z,101498.72
2022-12-05T04:06:01.722Z,101496.91
2022-12-05T04:08:48.524Z,101497.25
2022-12-05T04:11:22.955Z,101491.75
2022-12-05T04:14:01.343Z,101496.59
2022-12-05T04:17:02.398Z,101491.00
2022-12-05T04:20:01.430Z,101483.44
2022-12-05T04:22:28.824Z,101484.88
2022-12-05T04:25:19.132Z,101468.09
2022-12-05T04:28:35.931Z,101484.63
2022-12-05T04:31:16.344Z,101476.09
2022-12-05T04:34:18.065Z,101474.63
2022-12-05T04:36:56.921Z,101478.78
2022-12-05T04:39:48.615Z,101483.88
2022-12-05T04:42:23.044Z,101489.78
2022-12-05T04:45:13.151Z,101500.56
2022-12-05T04:47:47.507Z,101502.91
2022-12-05T04:50:21.043Z,101507.84
2022-12-05T04:52:53.607Z,101514.44
2022-12-05T04:55:28.183Z,101503.28
2022-12-05T04:58:19.907Z,101514.25
2022-12-05T05:01:23.113Z,101520.31
2022-12-05T05:04:13.039Z,101518.28
2022-12-05T05:06:44.602Z,101521.94
2022-12-05T05:09:11.942Z,101513.84
2022-12-05T05:11:39.206Z,101511.25
2022-12-05T05:14:06.393Z,101505.44
2022-12-05T05:16:45.537Z,101508.59
2022-12-05T05:19:13.150Z,101512.53
2022-12-05T05:21:42.491Z,101511.56
2022-12-05T05:24:14.004Z,101506.34
2022-12-05T05:26:46.088Z,101501.06
2022-12-05T05:29:14.353Z,101506.84
2022-12-05T05:31:45.376Z,101512.38
2022-12-05T05:34:15.850Z,101505.59
2022-12-05T05:36:44.013Z,101507.47
2022-12-05T05:39:15.454Z,101505.66
2022-12-05T05:41:45.289Z,101507.63
2022-12-05T05:44:12.508Z,101510.09
2022-12-05T05:46:39.713Z,101503.13
2022-12-05T05:49:07.077Z,101499.19
2022-12-05T05:51:36.890Z,101507.44
2022-12-05T05:54:06.643Z,101514.66
2022-12-05T05:56:40.963Z,101507.78
2022-12-05T05:59:08.014Z,101504.34
2022-12-05T06:01:35.072Z,101514.75
2022-12-05T06:04:05.250Z,101511.50
2022-12-05T06:06:37.084Z,101510.81
2022-12-05T06:09:10.204Z,101516.22
2022-12-05T06:11:39.338Z,101508.88
2022-12-05T06:14:06.211Z,101506.69
2022-12-05T06:16:35.439Z,101507.19
2022-12-05T06:19:05.360Z,101508.91
2022-12-05T06:21:34.587Z,101518.06
2022-12-05T06:24:01.594Z,101521.09
2022-12-05T06:26:33.036Z,101514.06
2022-12-05T06:29:02.147Z,101520.88
2022-12-05T06:31:31.608Z,101517.38
2022-12-05T06:34:04.785Z,101521.09
2022-12-05T06:36:34.783Z,101517.66
2022-12-05T06:39:03.971Z,101530.13
2022-12-05T06:41:36.183Z,101519.84
2022-12-05T06:44:05.615Z,101517.81
2022-12-05T06:46:32.463Z,101521.69
2022-12-05T06:48:59.879Z,101528.25
2022-12-05T06:51:31.426Z,101517.50
2022-12-05T06:53:58.462Z,101522.88
2022-12-05T06:56:25.422Z,101523.03
2022-12-05T06:58:57.212Z,101528.88
2022-12-05T07:01:40.820Z,101528.94
2022-12-05T07:04:13.026Z,101529.28
2022-12-05T07:06:50.212Z,101529.75
2022-12-05T07:09:44.638Z,101532.94
2022-12-05T07:12:14.832Z,101537.00
2022-12-05T07:14:48.177Z,101524.69
2022-12-05T07:17:19.287Z,101535.09
2022-12-05T07:19:49.597Z,101527.66
2022-12-05T07:22:18.390Z,101523.38
2022-12-05T07:24:46.235Z,101531.44
2022-12-05T07:27:25.049Z,101527.44
2022-12-05T07:29:54.119Z,101528.81
2022-12-05T07:32:23.063Z,101527.78
2022-12-05T07:34:55.568Z,101519.84
2022-12-05T07:37:25.315Z,101524.75
2022-12-05T07:39:53.257Z,101524.59
2022-12-05T07:42:20.241Z,101524.41
2022-12-05T07:44:47.205Z,101519.38
2022-12-05T07:47:16.462Z,101522.47
2022-12-05T07:49:45.618Z,101521.25
2022-12-05T07:52:15.233Z,101527.38
2022-12-05T07:54:42.165Z,101528.41
2022-12-05T07:57:11.144Z,101530.88
2022-12-05T07:59:38.320Z,101534.50
2022-12-05T08:02:06.533Z,101532.25
2022-12-05T08:04:33.549Z,101533.22
2022-12-05T08:07:00.503Z,101527.97
2022-12-05T08:09:27.616Z,101530.38
2022-12-05T08:11:54.575Z,101527.91
2022-12-05T08:14:23.718Z,101535.75
2022-12-05T08:16:50.714Z,101539.56
2022-12-05T08:19:22.599Z,101535.81
2022-12-05T08:21:49.622Z,101540.50
2022-12-05T08:24:19.166Z,101528.53
2022-12-05T08:26:46.194Z,101540.88
2022-12-05T08:29:16.054Z,101548.19
2022-12-05T08:31:49.536Z,101537.16
2022-12-05T08:34:25.546Z,101547.50
2022-12-05T08:36:52.365Z,101553.50
2022-12-05T08:39:19.912Z,101550.72
2022-12-05T08:41:48.019Z,101550.56
2022-12-05T08:44:18.680Z,101544.44
2022-12-05T08:46:49.590Z,101555.59
2022-12-05T08:49:19.588Z,101557.06
2022-12-05T08:51:46.854Z,101560.16
2022-12-05T08:54:16.532Z,101550.09
2022-12-05T08:56:43.607Z,101555.38
2022-12-05T08:59:10.619Z,101560.97
2022-12-05T09:01:39.399Z,101548.91
2022-12-05T09:04:07.697Z,101555.59
2022-12-05T09:06:39.161Z,101553.69
2022-12-05T09:09:09.184Z,101563.25
2022-12-05T09:11:46.402Z,101566.13
2022-12-05T09:14:14.265Z,101565.38
2022-12-05T09:16:43.928Z,101561.78
2022-12-05T09:19:21.012Z,101562.44
2022-12-05T09:21:53.216Z,101558.09
2022-12-05T09:24:25.099Z,101561.09
2022-12-05T09:26:52.109Z,101561.25
2022-12-05T09:29:19.327Z,101559.31
2022-12-05T09:31:49.954Z,101556.53
2022-12-05T09:34:21.671Z,101555.25
2022-12-05T09:36:55.597Z,101560.16
2022-12-05T09:39:25.658Z,101560.25
2022-12-05T09:42:20.167Z,101555.28
2022-12-05T09:45:04.049Z,101548.47
2022-12-05T09:48:01.548Z,101552.44
2022-12-05T09:50:46.696Z,101562.63
2022-12-05T09:53:43.593Z,101544.75
2022-12-05T09:56:19.378Z,101544.28
2022-12-05T09:58:53.574Z,101544.88
2022-12-05T10:01:56.144Z,101540.34
2022-12-05T10:05:00.737Z,101536.38
2022-12-05T10:07:39.315Z,101534.81
2022-12-05T10:10:40.609Z,101529.97
2022-12-05T10:13:22.165Z,101535.25
2022-12-05T10:16:04.148Z,101534.63
2022-12-05T10:18:43.248Z,101532.91
2022-12-05T10:21:20.589Z,101530.72
2022-12-05T10:24:13.297Z,101522.75
2022-12-05T10:26:46.980Z,101522.38
2022-12-05T10:29:40.410Z,101525.56
2022-12-05T10:32:18.962Z,101528.44
2022-12-05T10:34:46.649Z,101530.91
2022-12-05T10:37:22.692Z,101528.47
2022-12-05T10:39:51.039Z,101528.34
2022-12-05T10:42:35.151Z,101525.91
2022-12-05T10:45:14.219Z,101525.22
2022-12-05T10:47:41.573Z,101525.59
2022-12-05T10:50:23.521Z,101519.97
2022-12-05T10:52:53.246Z,101526.91
2022-12-05T10:55:20.804Z,101524.09
2022-12-05T10:58:15.515Z,101512.84
2022-12-05T11:00:48.959Z,101517.25
2022-12-05T11:03:38.432Z,101520.94
2022-12-05T11:06:31.233Z,101515.50
2022-12-05T11:09:08.428Z,101513.81
2022-12-05T11:11:35.512Z,101514.09
2022-12-05T11:14:21.436Z,101510.91
2022-12-05T11:16:57.637Z,101510.41
2022-12-05T11:19:43.187Z,101499.63
2022-12-05T11:22:17.447Z,101498.63
2022-12-05T11:24:44.422Z,101502.81
2022-12-05T11:27:34.768Z,101501.09
2022-12-05T11:30:22.343Z,101502.56
2022-12-05T11:32:51.812Z,101502.72
2022-12-05T11:35:28.917Z,101499.63
2022-12-05T11:38:09.734Z,101492.88
2022-12-05T11:41:18.551Z,101488.63
2022-12-05T11:44:15.946Z,101489.34
2022-12-05T11:47:14.116Z,101489.59
2022-12-05T11:50:08.293Z,101483.38
2022-12-05T11:52:56.422Z,101483.47
2022-12-05T11:55:57.016Z,101493.97
2022-12-05T11:58:32.778Z,101493.00
2022-12-05T12:01:47.290Z,101492.28
2022-12-05T12:04:27.728Z,101485.31
2022-12-05T12:07:19.218Z,101489.00
2022-12-05T12:10:21.692Z,101476.88
2022-12-05T12:13:34.798Z,101481.53
2022-12-05T12:16:06.696Z,101485.91
2022-12-05T12:18:56.984Z,101477.97
2022-12-05T12:21:42.750Z,101481.16
2022-12-05T12:24:31.927Z,101475.91
2022-12-05T12:27:30.396Z,101481.78
2022-12-05T12:30:10.689Z,101473.22
2022-12-05T12:33:20.444Z,101474.44
2022-12-05T12:35:57.091Z,101480.16
2022-12-05T12:38:51.629Z,101480.41
2022-12-05T12:41:56.176Z,101475.38
2022-12-05T12:45:05.451Z,101470.44
2022-12-05T12:48:03.684Z,101462.13
2022-12-05T12:50:43.214Z,101465.34
2022-12-05T12:53:47.747Z,101473.66
2022-12-05T12:57:15.286Z,101472.91
2022-12-05T13:00:09.457Z,101472.53
2022-12-05T13:03:00.382Z,101481.78
2022-12-05T13:05:34.176Z,101473.88
2022-12-05T13:08:38.524Z,101470.47
2022-12-05T13:11:15.537Z,101469.81
2022-12-05T13:13:56.629Z,101477.75
2022-12-05T13:16:28.687Z,101474.38
2022-12-05T13:18:57.339Z,101473.41
2022-12-05T13:21:27.436Z,101471.59
2022-12-05T13:24:03.176Z,101472.44
2022-12-05T13:26:33.090Z,101473.19
2022-12-05T13:29:03.419Z,101467.28
2022-12-05T13:31:40.480Z,101466.06
2022-12-05T13:34:46.314Z,101468.75
2022-12-05T13:37:48.069Z,101466.19
2022-12-05T13:40:52.561Z,101466.28
2022-12-05T13:43:26.780Z,101470.28
2022-12-05T13:46:29.636Z,101475.31
2022-12-05T13:49:33.914Z,101466.16
2022-12-05T13:52:16.842Z,101473.09
2022-12-05T13:55:15.584Z,101467.00
2022-12-05T13:57:44.255Z,101478.66
2022-12-05T14:00:11.147Z,101477.81
2022-12-05T14:02:47.125Z,101471.19
2022-12-05T14:05:14.041Z,101465.69
2022-12-05T14:07:45.913Z,101470.59
2022-12-05T14:10:25.032Z,101471.81
2022-12-05T14:13:14.831Z,101471.97
2022-12-05T14:15:45.677Z,101467.63
2022-12-05T14:18:44.853Z,101457.09
2022-12-05T14:21:21.975Z,101458.81
2022-12-05T14:24:07.992Z,101468.38
2022-12-05T14:26:59.569Z,101464.94
2022-12-05T14:29:47.308Z,101470.28
2022-12-05T14:32:28.361Z,101470.84
2022-12-05T14:35:01.373Z,101468.88
2022-12-05T14:37:36.802Z,101466.22
2022-12-05T14:40:44.616Z,101459.34
2022-12-05T14:43:33.474Z,101462.75
2022-12-05T14:46:16.692Z,101468.66
2022-12-05T14:48:48.404Z,101464.47
2022-12-05T14:51:33.202Z,101468.91
2022-12-05T14:54:19.583Z,101464.13
2022-12-05T14:57:03.201Z,101466.78
2022-12-05T15:00:00.531Z,101458.38
2022-12-05T15:02:55.681Z,101465.91
2022-12-05T15:05:33.236Z,101468.72
2022-12-05T15:08:04.207Z,101469.22
2022-12-05T15:10:42.945Z,101475.31
2022-12-05T15:13:24.647Z,101463.81
2022-12-05T15:16:22.266Z,101466.16
2022-12-05T15:19:00.534Z,101461.00
2022-12-05T15:21:42.197Z,101468.00
2022-12-05T15:24:17.120Z,101461.88
2022-12-05T15:26:51.311Z,101473.22
2022-12-05T15:29:23.033Z,101470.69
2022-12-05T15:31:59.242Z,101471.53
2022-12-05T15:34:44.689Z,101472.19
2022-12-05T15:37:18.543Z,101466.78
2022-12-05T15:40:14.403Z,101473.13
2022-12-05T15:42:45.835Z,101470.91
2022-12-05T15:45:15.352Z,101475.59
2022-12-05T15:47:59.363Z,101472.16
2022-12-05T15:50:37.821Z,101479.16
2022-12-05T15:53:09.627Z,101478.53
2022-12-05T15:55:48.739Z,101472.28
2022-12-05T15:58:36.872Z,101475.69
2022-12-05T16:01:26.795Z,101476.47
2022-12-05T16:04:12.638Z,101474.06
2022-12-05T16:07:00.494Z,101478.34
2022-12-05T16:09:32.389Z,101474.03
2022-12-05T16:12:16.907Z,101470.31
2022-12-05T16:14:59.528Z,101471.84
2022-12-05T16:17:30.561Z,101465.47
2022-12-05T16:20:24.891Z,101464.75
2022-12-05T16:22:56.325Z,101466.22
2022-12-05T16:25:29.605Z,101464.53
2022-12-05T16:28:07.431Z,101465.75
2022-12-05T16:30:36.087Z,101473.94
2022-12-05T16:33:06.495Z,101471.97
2022-12-05T16:35:39.958Z,101471.06
2022-12-05T16:38:29.911Z,101466.69
2022-12-05T16:40:59.358Z,101476.59
2022-12-05T16:43:46.180Z,101470.84
2022-12-05T16:46:17.386Z,101476.44
2022-12-05T16:48:50.425Z,101476.28
2022-12-05T16:51:30.137Z,101473.25
2022-12-05T16:53:57.289Z,101479.34
2022-12-05T16:56:32.653Z,101471.13
2022-12-05T16:59:23.065Z,101468.97
2022-12-05T17:01:52.286Z,101472.78
2022-12-05T17:04:21.849Z,101468.69
2022-12-05T17:06:51.513Z,101467.81
2022-12-05T17:09:20.820Z,101466.03
2022-12-05T17:11:53.370Z,101471.22
2022-12-05T17:14:22.815Z,101475.75
2022-12-05T17:16:52.008Z,101472.78
2022-12-05T17:19:19.045Z,101479.00
2022-12-05T17:21:48.559Z,101469.06
2022-12-05T17:24:20.619Z,101467.91
2022-12-05T17:26:47.729Z,101472.91
2022-12-05T17:29:17.297Z,101466.00
2022-12-05T17:31:47.093Z,101468.97
2022-12-05T17:34:17.102Z,101472.28
2022-12-05T17:36:45.286Z,101479.34
2022-12-05T17:39:12.764Z,101471.59
2022-12-05T17:41:42.385Z,101476.63
2022-12-05T17:44:14.478Z,101468.34
2022-12-05T17:46:45.094Z,101468.59
2022-12-05T17:49:18.603Z,101473.75
2022-12-05T17:52:19.906Z,101473.00
2022-12-05T17:54:36.213Z,101475.31
2022-12-05T17:57:07.522Z,101471.28
2022-12-05T17:59:34.471Z,101472.56
2022-12-05T18:02:03.720Z,101471.06
2022-12-05T18:04:36.811Z,101477.91
2022-12-05T18:07:06.105Z,101476.56
2022-12-05T18:09:32.934Z,101478.69
2022-12-05T18:11:59.895Z,101479.63
2022-12-05T18:14:28.313Z,101480.38
2022-12-05T18:16:57.971Z,101486.41
2022-12-05T18:19:27.402Z,101482.84
2022-12-05T18:21:57.012Z,101490.97
2022-12-05T18:24:24.059Z,101488.13
2022-12-05T18:26:51.002Z,101489.72
2022-12-05T18:29:17.871Z,101477.81
2022-12-05T18:31:44.870Z,101491.44
2022-12-05T18:34:11.861Z,101482.56
2022-12-05T18:36:41.375Z,101495.88
2022-12-05T18:39:18.450Z,101496.13
2022-12-05T18:41:47.947Z,101491.03
2022-12-05T18:44:15.119Z,101488.34
2022-12-05T18:46:44.525Z,101503.22
2022-12-05T18:49:13.366Z,101494.13
2022-12-05T18:51:43.992Z,101492.00
2022-12-05T18:54:13.765Z,101498.88
2022-12-05T18:56:41.087Z,101495.44
2022-12-05T18:59:15.052Z,101504.00
2022-12-05T19:01:42.432Z,101497.88
2022-12-05T19:04:14.393Z,101506.75
2022-12-05T19:06:49.652Z,101511.78
2022-12-05T19:09:19.456Z,101502.81
2022-12-05T19:11:50.954Z,101510.94
2022-12-05T19:14:19.436Z,101499.16
2022-12-05T19:16:52.652Z,101506.63
2022-12-05T19:19:25.270Z,101497.16
2022-12-05T19:21:53.486Z,101507.09
2022-12-05T19:24:22.846Z,101493.66
2022-12-05T19:26:49.929Z,101495.03
2022-12-05T19:29:17.337Z,101498.34
2022-12-05T19:31:45.180Z,101497.00
2022-12-05T19:34:15.030Z,101493.44
2022-12-05T19:36:45.027Z,101500.69
2022-12-05T19:39:16.659Z,101497.25
2022-12-05T19:41:49.003Z,101493.56
2022-12-05T19:44:16.072Z,101491.53
2022-12-05T19:46:43.725Z,101494.63
2022-12-05T19:49:16.458Z,101497.53
2022-12-05T19:51:48.569Z,101497.72
2022-12-05T19:54:18.089Z,101495.09
2022-12-05T19:56:47.772Z,101497.88
2022-12-05T19:59:17.507Z,101497.91
2022-12-05T20:01:44.834Z,101497.47
2022-12-05T20:04:14.840Z,101500.16
2022-12-05T20:06:45.733Z,101499.63
2022-12-05T20:09:18.660Z,101498.44
2022-12-05T20:11:55.072Z,101501.44
2022-12-05T20:14:24.814Z,101497.25
2022-12-05T20:16:54.946Z,101505.22
2022-12-05T20:19:23.875Z,101494.94
2022-12-05T20:21:55.234Z,101494.25
2022-12-05T20:24:22.911Z,101494.84
2022-12-05T20:26:49.877Z,101493.44
2022-12-05T20:29:16.874Z,101490.28
2022-12-05T20:31:44.245Z,101494.19
2022-12-05T20:34:13.848Z,101488.06
2022-12-05T20:36:41.476Z,101481.25
2022-12-05T20:39:14.487Z,101487.94
2022-12-05T20:41:41.618Z,101492.09
2022-12-05T20:44:11.355Z,101486.75
2022-12-05T20:46:41.609Z,101484.63
2022-12-05T20:49:09.179Z,101486.75
2022-12-05T20:51:45.174Z,101479.03
2022-12-05T20:54:13.380Z,101474.63
2022-12-05T20:56:40.967Z,101480.84
2022-12-05T20:59:15.931Z,101473.22
2022-12-05T21:01:43.072Z,101472.56
2022-12-05T21:04:13.896Z,101473.44
2022-12-05T21:06:45.801Z,101468.00
2022-12-05T21:09:26.355Z,101462.44
2022-12-05T21:11:56.655Z,101459.31
2022-12-05T21:14:26.639Z,101465.66
2022-12-05T21:16:58.258Z,101467.09
2022-12-05T21:19:27.134Z,101465.38
2022-12-05T21:21:56.704Z,101462.41
2022-12-05T21:24:23.615Z,101454.16
2022-12-05T21:26:51.467Z,101459.81
2022-12-05T21:29:18.548Z,101457.44
2022-12-05T21:31:49.943Z,101456.53
2022-12-05T21:34:22.588Z,101453.59
2022-12-05T21:36:49.795Z,101453.50
2022-12-05T21:39:16.931Z,101457.78
2022-12-05T21:41:46.364Z,101440.28
2022-12-05T21:44:14.849Z,101452.63
2022-12-05T21:46:41.854Z,101448.88
2022-12-05T21:49:11.776Z,101444.81
2022-12-05T21:51:38.617Z,101436.25
2022-12-05T21:54:05.573Z,101442.03
2022-12-05T21:56:34.904Z,101435.59
2022-12-05T21:59:04.195Z,101439.41
2022-12-05T22:01:31.077Z,101437.63
2022-12-05T22:04:01.193Z,101441.34
2022-12-05T22:06:33.340Z,101438.75
2022-12-05T22:09:04.770Z,101440.06
2022-12-05T22:11:31.718Z,101441.34
2022-12-05T22:13:58.566Z,101439.09
2022-12-05T22:16:30.810Z,101429.25
2022-12-05T22:18:59.150Z,101433.41
2022-12-05T22:21:25.991Z,101433.16
2022-12-05T22:23:52.891Z,101428.31
2022-12-05T22:26:28.315Z,101434.28
2022-12-05T22:29:01.395Z,101440.06
2022-12-05T22:31:30.388Z,101426.97
2022-12-05T22:33:59.689Z,101428.09
2022-12-05T22:36:26.573Z,101427.66
2022-12-05T22:38:53.396Z,101434.50
2022-12-05T22:41:23.888Z,101429.78
2022-12-05T22:43:59.023Z,101420.47
2022-12-05T22:46:29.259Z,101426.56
2022-12-05T22:49:02.553Z,101429.28
2022-12-05T22:51:29.634Z,101421.81
2022-12-05T22:53:59.689Z,101421.91
2022-12-05T22:56:29.345Z,101423.63
2022-12-05T22:58:58.772Z,101420.03
2022-12-05T23:01:34.005Z,101417.78
2022-12-05T23:04:15.008Z,101411.78
2022-12-05T23:06:41.882Z,101418.84
2022-12-05T23:09:10.962Z,101408.94
2022-12-05T23:11:38.217Z,101407.69
2022-12-05T23:14:06.898Z,101408.78
2022-12-05T23:16:36.397Z,101406.16
2022-12-05T23:19:08.956Z,101404.16
2022-12-05T23:21:40.247Z,101402.50
2022-12-05T23:24:10.844Z,101397.63
2022-12-05T23:26:44.732Z,101400.72
2022-12-05T23:29:13.342Z,101393.06
2022-12-05T23:31:43.956Z,101395.47
2022-12-05T23:34:14.080Z,101391.41
2022-12-05T23:36:43.428Z,101386.78
2022-12-05T23:39:10.537Z,101386.88
2022-12-05T23:41:37.450Z,101385.41
2022-12-05T23:44:04.760Z,101385.59
2022-12-05T23:46:31.693Z,101380.22
2022-12-05T23:48:59.118Z,101388.47
2022-12-05T23:51:30.789Z,101369.28
2022-12-05T23:54:00.851Z,101372.06
2022-12-05T23:56:33.639Z,101372.69
2022-12-05T23:59:05.130Z,101375.31
